Terminal Aerodrome Forecast
Issued by NWS Sioux Falls, SD

Home | Current Version | Previous Version | Text Only | Print | Product List | Glossary On
Versions: 1 2 3 4 5 6 7 8 9 10 11 12 13
000
FTUS43 KFSD 230654 RRA
TAFFSD
TAF
KFSD 230654Z 2307/2406 30008KT P6SM SKC
     FM231300 31004KT P6SM FEW250
     FM231600 22004KT P6SM FEW250
     FM232000 22010KT P6SM FEW250
     FM232300 19008KT P6SM BKN200=

USA.gov is the U.S. government's official web portal to all federal, state and local government web resources and services.